sensor_id;sensor_type;location;lat;lon;timestamp;P1;durP1;ratioP1;P2;durP2;ratioP2
13202;SDS011;6666;51.626;7.530;2023-12-22T00:00:20;14.82;;;2.80;;
13202;SDS011;6666;51.626;7.530;2023-12-22T00:02:48;11.63;;;2.20;;
13202;SDS011;6666;51.626;7.530;2023-12-22T00:05:16;11.65;;;2.53;;
13202;SDS011;6666;51.626;7.530;2023-12-22T00:07:46;9.73;;;2.10;;
13202;SDS011;6666;51.626;7.530;2023-12-22T00:10:14;11.85;;;2.00;;
13202;SDS011;6666;51.626;7.530;2023-12-22T00:12:42;7.78;;;1.77;;
13202;SDS011;6666;51.626;7.530;2023-12-22T00:15:10;11.27;;;2.20;;
13202;SDS011;6666;51.626;7.530;2023-12-22T00:17:39;12.48;;;2.20;;
13202;SDS011;6666;51.626;7.530;2023-12-22T00:20:07;10.15;;;2.20;;
13202;SDS011;6666;51.626;7.530;2023-12-22T00:22:40;9.88;;;2.05;;
13202;SDS011;6666;51.626;7.530;2023-12-22T00:25:10;9.02;;;2.05;;
13202;SDS011;6666;51.626;7.530;2023-12-22T00:27:38;13.33;;;2.60;;
13202;SDS011;6666;51.626;7.530;2023-12-22T00:30:07;16.33;;;2.92;;
13202;SDS011;6666;51.626;7.530;2023-12-22T00:32:36;9.02;;;1.90;;
13202;SDS011;6666;51.626;7.530;2023-12-22T00:35:05;11.70;;;2.15;;
13202;SDS011;6666;51.626;7.530;2023-12-22T00:37:33;10.35;;;1.80;;
13202;SDS011;6666;51.626;7.530;2023-12-22T00:40:02;13.73;;;2.17;;
13202;SDS011;6666;51.626;7.530;2023-12-22T00:42:33;11.95;;;2.58;;
13202;SDS011;6666;51.626;7.530;2023-12-22T00:45:01;14.20;;;2.33;;
13202;SDS011;6666;51.626;7.530;2023-12-22T00:47:29;14.57;;;2.42;;
13202;SDS011;6666;51.626;7.530;2023-12-22T00:49:58;12.13;;;2.13;;
13202;SDS011;6666;51.626;7.530;2023-12-22T00:52:26;14.90;;;2.50;;
13202;SDS011;6666;51.626;7.530;2023-12-22T00:54:54;11.13;;;2.50;;
13202;SDS011;6666;51.626;7.530;2023-12-22T00:57:22;12.37;;;2.40;;
13202;SDS011;6666;51.626;7.530;2023-12-22T00:59:52;12.63;;;2.40;;
13202;SDS011;6666;51.626;7.530;2023-12-22T01:02:21;13.85;;;2.00;;
13202;SDS011;6666;51.626;7.530;2023-12-22T01:04:49;12.65;;;2.20;;
13202;SDS011;6666;51.626;7.530;2023-12-22T01:07:17;20.05;;;2.75;;
13202;SDS011;6666;51.626;7.530;2023-12-22T01:09:45;12.93;;;2.35;;
13202;SDS011;6666;51.626;7.530;2023-12-22T01:12:14;14.38;;;2.47;;
13202;SDS011;6666;51.626;7.530;2023-12-22T01:14:42;14.30;;;1.90;;
13202;SDS011;6666;51.626;7.530;2023-12-22T01:17:12;11.13;;;2.00;;
13202;SDS011;6666;51.626;7.530;2023-12-22T01:19:41;10.23;;;1.85;;
13202;SDS011;6666;51.626;7.530;2023-12-22T01:22:09;13.25;;;2.20;;
13202;SDS011;6666;51.626;7.530;2023-12-22T01:24:37;9.15;;;1.85;;
13202;SDS011;6666;51.626;7.530;2023-12-22T01:27:09;14.70;;;2.10;;
13202;SDS011;6666;51.626;7.530;2023-12-22T01:29:37;10.53;;;2.27;;
13202;SDS011;6666;51.626;7.530;2023-12-22T01:32:06;13.55;;;2.10;;
13202;SDS011;6666;51.626;7.530;2023-12-22T01:34:35;14.82;;;2.40;;
13202;SDS011;6666;51.626;7.530;2023-12-22T01:37:03;14.02;;;2.75;;
13202;SDS011;6666;51.626;7.530;2023-12-22T01:39:31;9.88;;;1.90;;
13202;SDS011;6666;51.626;7.530;2023-12-22T01:42:00;17.30;;;2.50;;
13202;SDS011;6666;51.626;7.530;2023-12-22T01:44:28;13.50;;;1.83;;
13202;SDS011;6666;51.626;7.530;2023-12-22T01:46:56;11.50;;;2.20;;
13202;SDS011;6666;51.626;7.530;2023-12-22T01:49:26;14.27;;;2.70;;
13202;SDS011;6666;51.626;7.530;2023-12-22T01:51:57;17.58;;;2.63;;
13202;SDS011;6666;51.626;7.530;2023-12-22T01:54:26;15.33;;;3.00;;
13202;SDS011;6666;51.626;7.530;2023-12-22T01:56:54;20.17;;;3.10;;
13202;SDS011;6666;51.626;7.530;2023-12-22T01:59:23;23.20;;;3.70;;
13202;SDS011;6666;51.626;7.530;2023-12-22T02:01:51;11.80;;;2.30;;
13202;SDS011;6666;51.626;7.530;2023-12-22T02:04:20;9.32;;;1.92;;
13202;SDS011;6666;51.626;7.530;2023-12-22T02:06:49;12.35;;;1.73;;
13202;SDS011;6666;51.626;7.530;2023-12-22T02:09:20;12.23;;;2.05;;
13202;SDS011;6666;51.626;7.530;2023-12-22T02:11:48;9.97;;;2.33;;
13202;SDS011;6666;51.626;7.530;2023-12-22T02:14:16;8.32;;;1.80;;
13202;SDS011;6666;51.626;7.530;2023-12-22T02:16:45;11.55;;;1.90;;
13202;SDS011;6666;51.626;7.530;2023-12-22T02:19:21;9.40;;;1.57;;
13202;SDS011;6666;51.626;7.530;2023-12-22T02:22:06;11.38;;;2.30;;
13202;SDS011;6666;51.626;7.530;2023-12-22T02:24:37;12.63;;;1.92;;
13202;SDS011;6666;51.626;7.530;2023-12-22T02:27:08;9.90;;;2.45;;
13202;SDS011;6666;51.626;7.530;2023-12-22T02:29:44;9.90;;;1.73;;
13202;SDS011;6666;51.626;7.530;2023-12-22T02:32:17;8.55;;;1.98;;
13202;SDS011;6666;51.626;7.530;2023-12-22T02:34:50;11.93;;;1.90;;
13202;SDS011;6666;51.626;7.530;2023-12-22T02:37:21;13.13;;;2.00;;
13202;SDS011;6666;51.626;7.530;2023-12-22T02:39:52;14.88;;;1.75;;
13202;SDS011;6666;51.626;7.530;2023-12-22T02:42:21;7.72;;;1.40;;
13202;SDS011;6666;51.626;7.530;2023-12-22T02:44:56;9.77;;;1.85;;
13202;SDS011;6666;51.626;7.530;2023-12-22T02:47:25;6.97;;;1.75;;
13202;SDS011;6666;51.626;7.530;2023-12-22T02:49:54;8.85;;;2.10;;
13202;SDS011;6666;51.626;7.530;2023-12-22T02:52:23;10.30;;;1.98;;
13202;SDS011;6666;51.626;7.530;2023-12-22T02:54:52;7.75;;;1.90;;
13202;SDS011;6666;51.626;7.530;2023-12-22T02:57:20;9.60;;;1.50;;
13202;SDS011;6666;51.626;7.530;2023-12-22T02:59:49;6.60;;;1.10;;
13202;SDS011;6666;51.626;7.530;2023-12-22T03:02:17;5.22;;;1.05;;
13202;SDS011;6666;51.626;7.530;2023-12-22T03:04:45;9.32;;;1.20;;
13202;SDS011;6666;51.626;7.530;2023-12-22T03:07:13;4.18;;;1.00;;
13202;SDS011;6666;51.626;7.530;2023-12-22T03:09:42;6.35;;;1.30;;
13202;SDS011;6666;51.626;7.530;2023-12-22T03:12:12;6.13;;;1.60;;
13202;SDS011;6666;51.626;7.530;2023-12-22T03:14:40;7.30;;;1.10;;
13202;SDS011;6666;51.626;7.530;2023-12-22T03:17:11;6.10;;;1.30;;
13202;SDS011;6666;51.626;7.530;2023-12-22T03:19:42;6.40;;;1.00;;
13202;SDS011;6666;51.626;7.530;2023-12-22T03:22:10;6.82;;;1.40;;
13202;SDS011;6666;51.626;7.530;2023-12-22T03:24:38;8.93;;;1.60;;
13202;SDS011;6666;51.626;7.530;2023-12-22T03:27:07;5.40;;;1.17;;
13202;SDS011;6666;51.626;7.530;2023-12-22T03:29:36;7.97;;;1.60;;
13202;SDS011;6666;51.626;7.530;2023-12-22T03:32:05;3.00;;;1.10;;
13202;SDS011;6666;51.626;7.530;2023-12-22T03:34:33;6.22;;;1.17;;
13202;SDS011;6666;51.626;7.530;2023-12-22T03:37:01;4.30;;;0.95;;
13202;SDS011;6666;51.626;7.530;2023-12-22T03:39:29;3.53;;;1.40;;
13202;SDS011;6666;51.626;7.530;2023-12-22T03:41:57;5.80;;;1.27;;
13202;SDS011;6666;51.626;7.530;2023-12-22T03:44:28;5.80;;;1.20;;
13202;SDS011;6666;51.626;7.530;2023-12-22T03:46:57;14.60;;;1.40;;
13202;SDS011;6666;51.626;7.530;2023-12-22T03:49:25;9.43;;;1.50;;
13202;SDS011;6666;51.626;7.530;2023-12-22T03:51:54;8.02;;;1.60;;
13202;SDS011;6666;51.626;7.530;2023-12-22T03:54:22;4.87;;;1.23;;
13202;SDS011;6666;51.626;7.530;2023-12-22T03:56:50;6.00;;;1.13;;
13202;SDS011;6666;51.626;7.530;2023-12-22T03:59:18;6.55;;;1.30;;
13202;SDS011;6666;51.626;7.530;2023-12-22T04:01:50;5.50;;;1.50;;
13202;SDS011;6666;51.626;7.530;2023-12-22T04:04:20;3.67;;;0.80;;
13202;SDS011;6666;51.626;7.530;2023-12-22T04:06:49;5.20;;;1.30;;
13202;SDS011;6666;51.626;7.530;2023-12-22T04:09:18;6.80;;;1.00;;
13202;SDS011;6666;51.626;7.530;2023-12-22T04:11:46;4.40;;;1.23;;
13202;SDS011;6666;51.626;7.530;2023-12-22T04:14:14;5.40;;;1.30;;
13202;SDS011;6666;51.626;7.530;2023-12-22T04:16:44;2.65;;;1.00;;
13202;SDS011;6666;51.626;7.530;2023-12-22T04:19:13;5.30;;;1.60;;
13202;SDS011;6666;51.626;7.530;2023-12-22T04:21:43;4.20;;;1.10;;
13202;SDS011;6666;51.626;7.530;2023-12-22T04:24:11;5.22;;;1.30;;
13202;SDS011;6666;51.626;7.530;2023-12-22T04:26:39;8.77;;;2.50;;
13202;SDS011;6666;51.626;7.530;2023-12-22T04:29:08;4.03;;;1.30;;
13202;SDS011;6666;51.626;7.530;2023-12-22T04:31:36;6.75;;;1.50;;
13202;SDS011;6666;51.626;7.530;2023-12-22T04:34:04;4.10;;;0.90;;
13202;SDS011;6666;51.626;7.530;2023-12-22T04:36:32;4.63;;;1.30;;
13202;SDS011;6666;51.626;7.530;2023-12-22T04:39:02;2.63;;;0.90;;
13202;SDS011;6666;51.626;7.530;2023-12-22T04:41:30;4.35;;;0.90;;
13202;SDS011;6666;51.626;7.530;2023-12-22T04:43:58;3.97;;;1.10;;
13202;SDS011;6666;51.626;7.530;2023-12-22T04:46:29;4.40;;;1.10;;
13202;SDS011;6666;51.626;7.530;2023-12-22T04:48:57;3.60;;;1.00;;
13202;SDS011;6666;51.626;7.530;2023-12-22T04:51:26;3.63;;;0.95;;
13202;SDS011;6666;51.626;7.530;2023-12-22T04:53:54;3.00;;;0.93;;
13202;SDS011;6666;51.626;7.530;2023-12-22T04:56:23;6.43;;;1.92;;
13202;SDS011;6666;51.626;7.530;2023-12-22T04:58:51;6.65;;;1.23;;
13202;SDS011;6666;51.626;7.530;2023-12-22T05:01:20;6.72;;;1.00;;
13202;SDS011;6666;51.626;7.530;2023-12-22T05:03:48;3.88;;;1.00;;
13202;SDS011;6666;51.626;7.530;2023-12-22T05:06:16;6.15;;;1.30;;
13202;SDS011;6666;51.626;7.530;2023-12-22T05:08:44;5.95;;;1.10;;
13202;SDS011;6666;51.626;7.530;2023-12-22T05:11:12;5.88;;;1.38;;
13202;SDS011;6666;51.626;7.530;2023-12-22T05:13:42;3.70;;;1.10;;
13202;SDS011;6666;51.626;7.530;2023-12-22T05:16:11;3.83;;;0.80;;
13202;SDS011;6666;51.626;7.530;2023-12-22T05:18:39;6.78;;;0.88;;
13202;SDS011;6666;51.626;7.530;2023-12-22T05:21:11;6.00;;;1.10;;
13202;SDS011;6666;51.626;7.530;2023-12-22T05:23:40;3.03;;;0.90;;
13202;SDS011;6666;51.626;7.530;2023-12-22T05:26:08;5.50;;;1.10;;
13202;SDS011;6666;51.626;7.530;2023-12-22T05:28:36;5.32;;;1.13;;
13202;SDS011;6666;51.626;7.530;2023-12-22T05:31:05;5.45;;;1.52;;
13202;SDS011;6666;51.626;7.530;2023-12-22T05:33:34;5.05;;;1.00;;
13202;SDS011;6666;51.626;7.530;2023-12-22T05:36:02;4.60;;;1.38;;
13202;SDS011;6666;51.626;7.530;2023-12-22T05:38:30;7.00;;;1.50;;
13202;SDS011;6666;51.626;7.530;2023-12-22T05:40:59;6.30;;;1.30;;
13202;SDS011;6666;51.626;7.530;2023-12-22T05:43:27;7.22;;;1.27;;
13202;SDS011;6666;51.626;7.530;2023-12-22T05:45:55;9.27;;;1.73;;
13202;SDS011;6666;51.626;7.530;2023-12-22T05:48:24;6.15;;;1.40;;
13202;SDS011;6666;51.626;7.530;2023-12-22T05:50:55;7.13;;;1.60;;
13202;SDS011;6666;51.626;7.530;2023-12-22T05:53:24;10.15;;;1.77;;
13202;SDS011;6666;51.626;7.530;2023-12-22T05:55:52;9.90;;;1.70;;
13202;SDS011;6666;51.626;7.530;2023-12-22T05:58:20;8.60;;;1.80;;
13202;SDS011;6666;51.626;7.530;2023-12-22T06:00:48;6.10;;;1.55;;
13202;SDS011;6666;51.626;7.530;2023-12-22T06:03:16;5.38;;;1.40;;
13202;SDS011;6666;51.626;7.530;2023-12-22T06:05:47;9.48;;;1.60;;
13202;SDS011;6666;51.626;7.530;2023-12-22T06:08:16;8.02;;;1.42;;
13202;SDS011;6666;51.626;7.530;2023-12-22T06:10:44;7.22;;;1.50;;
13202;SDS011;6666;51.626;7.530;2023-12-22T06:13:12;5.18;;;1.58;;
13202;SDS011;6666;51.626;7.530;2023-12-22T06:15:41;9.23;;;1.77;;
13202;SDS011;6666;51.626;7.530;2023-12-22T06:18:09;6.72;;;1.60;;
13202;SDS011;6666;51.626;7.530;2023-12-22T06:20:37;7.78;;;1.90;;
13202;SDS011;6666;51.626;7.530;2023-12-22T06:23:07;11.70;;;1.50;;
13202;SDS011;6666;51.626;7.530;2023-12-22T06:25:35;5.97;;;1.70;;
13202;SDS011;6666;51.626;7.530;2023-12-22T06:28:03;9.82;;;2.00;;
13202;SDS011;6666;51.626;7.530;2023-12-22T06:30:32;7.22;;;1.75;;
13202;SDS011;6666;51.626;7.530;2023-12-22T06:33:00;8.20;;;1.90;;
13202;SDS011;6666;51.626;7.530;2023-12-22T06:35:28;8.45;;;2.30;;
13202;SDS011;6666;51.626;7.530;2023-12-22T06:37:58;9.45;;;2.00;;
13202;SDS011;6666;51.626;7.530;2023-12-22T06:40:31;13.38;;;2.08;;
13202;SDS011;6666;51.626;7.530;2023-12-22T06:42:59;10.00;;;1.70;;
13202;SDS011;6666;51.626;7.530;2023-12-22T06:45:28;10.07;;;1.98;;
13202;SDS011;6666;51.626;7.530;2023-12-22T06:47:56;9.93;;;1.83;;
13202;SDS011;6666;51.626;7.530;2023-12-22T06:50:25;12.10;;;2.40;;
13202;SDS011;6666;51.626;7.530;2023-12-22T06:52:53;13.02;;;2.33;;
13202;SDS011;6666;51.626;7.530;2023-12-22T06:55:21;17.17;;;3.10;;
13202;SDS011;6666;51.626;7.530;2023-12-22T06:57:51;15.45;;;3.40;;
13202;SDS011;6666;51.626;7.530;2023-12-22T07:00:19;20.05;;;3.60;;
13202;SDS011;6666;51.626;7.530;2023-12-22T07:02:48;16.35;;;3.80;;
13202;SDS011;6666;51.626;7.530;2023-12-22T07:05:34;20.07;;;3.90;;
13202;SDS011;6666;51.626;7.530;2023-12-22T07:08:04;16.15;;;3.88;;
13202;SDS011;6666;51.626;7.530;2023-12-22T07:10:33;18.17;;;3.13;;
13202;SDS011;6666;51.626;7.530;2023-12-22T07:13:03;19.08;;;3.80;;
13202;SDS011;6666;51.626;7.530;2023-12-22T07:15:32;11.27;;;2.65;;
13202;SDS011;6666;51.626;7.530;2023-12-22T07:18:00;11.63;;;2.70;;
13202;SDS011;6666;51.626;7.530;2023-12-22T07:20:28;10.63;;;2.90;;
13202;SDS011;6666;51.626;7.530;2023-12-22T07:22:57;10.57;;;2.50;;
13202;SDS011;6666;51.626;7.530;2023-12-22T07:25:25;13.75;;;2.72;;
13202;SDS011;6666;51.626;7.530;2023-12-22T07:27:55;13.50;;;3.30;;
13202;SDS011;6666;51.626;7.530;2023-12-22T07:30:24;13.63;;;2.72;;
13202;SDS011;6666;51.626;7.530;2023-12-22T07:32:52;14.45;;;2.47;;
13202;SDS011;6666;51.626;7.530;2023-12-22T07:35:20;13.77;;;2.90;;
13202;SDS011;6666;51.626;7.530;2023-12-22T07:37:49;17.33;;;2.75;;
13202;SDS011;6666;51.626;7.530;2023-12-22T07:40:17;14.80;;;2.85;;
13202;SDS011;6666;51.626;7.530;2023-12-22T07:42:47;14.17;;;2.30;;
13202;SDS011;6666;51.626;7.530;2023-12-22T07:45:17;17.15;;;3.47;;
13202;SDS011;6666;51.626;7.530;2023-12-22T07:47:47;14.07;;;2.87;;
13202;SDS011;6666;51.626;7.530;2023-12-22T07:50:16;16.67;;;3.47;;
13202;SDS011;6666;51.626;7.530;2023-12-22T07:52:46;15.13;;;3.35;;
13202;SDS011;6666;51.626;7.530;2023-12-22T07:55:14;17.30;;;4.07;;
13202;SDS011;6666;51.626;7.530;2023-12-22T07:57:42;22.25;;;4.20;;
13202;SDS011;6666;51.626;7.530;2023-12-22T08:00:12;19.63;;;5.47;;
13202;SDS011;6666;51.626;7.530;2023-12-22T08:02:41;22.58;;;5.45;;
13202;SDS011;6666;51.626;7.530;2023-12-22T08:05:10;16.63;;;5.65;;
13202;SDS011;6666;51.626;7.530;2023-12-22T08:07:39;12.32;;;3.35;;
13202;SDS011;6666;51.626;7.530;2023-12-22T08:10:08;14.52;;;3.90;;
13202;SDS011;6666;51.626;7.530;2023-12-22T08:12:35;14.60;;;4.68;;
13202;SDS011;6666;51.626;7.530;2023-12-22T08:15:04;14.35;;;3.35;;
13202;SDS011;6666;51.626;7.530;2023-12-22T08:17:33;11.88;;;2.80;;
13202;SDS011;6666;51.626;7.530;2023-12-22T08:20:02;11.25;;;2.97;;
13202;SDS011;6666;51.626;7.530;2023-12-22T08:22:41;17.70;;;3.25;;
13202;SDS011;6666;51.626;7.530;2023-12-22T08:25:12;13.93;;;2.60;;
13202;SDS011;6666;51.626;7.530;2023-12-22T08:27:40;9.02;;;1.80;;
13202;SDS011;6666;51.626;7.530;2023-12-22T08:30:09;8.00;;;2.00;;
13202;SDS011;6666;51.626;7.530;2023-12-22T08:32:38;6.85;;;1.95;;
13202;SDS011;6666;51.626;7.530;2023-12-22T08:35:06;7.97;;;1.77;;
13202;SDS011;6666;51.626;7.530;2023-12-22T08:37:35;8.90;;;2.00;;
13202;SDS011;6666;51.626;7.530;2023-12-22T08:40:06;8.73;;;1.70;;
13202;SDS011;6666;51.626;7.530;2023-12-22T08:42:35;13.80;;;2.23;;
13202;SDS011;6666;51.626;7.530;2023-12-22T08:45:04;12.27;;;2.17;;
13202;SDS011;6666;51.626;7.530;2023-12-22T08:47:35;12.52;;;2.40;;
13202;SDS011;6666;51.626;7.530;2023-12-22T08:50:03;13.68;;;2.60;;
13202;SDS011;6666;51.626;7.530;2023-12-22T08:52:34;9.07;;;2.00;;
13202;SDS011;6666;51.626;7.530;2023-12-22T08:55:02;12.77;;;2.10;;
13202;SDS011;6666;51.626;7.530;2023-12-22T08:57:33;11.60;;;2.70;;
13202;SDS011;6666;51.626;7.530;2023-12-22T09:00:01;9.75;;;2.80;;
13202;SDS011;6666;51.626;7.530;2023-12-22T09:02:30;11.68;;;2.50;;
13202;SDS011;6666;51.626;7.530;2023-12-22T09:04:59;15.07;;;3.00;;
13202;SDS011;6666;51.626;7.530;2023-12-22T09:07:28;14.53;;;3.00;;
13202;SDS011;6666;51.626;7.530;2023-12-22T09:09:56;15.90;;;3.30;;
13202;SDS011;6666;51.626;7.530;2023-12-22T09:12:24;16.35;;;2.70;;
13202;SDS011;6666;51.626;7.530;2023-12-22T09:14:54;9.30;;;2.50;;
13202;SDS011;6666;51.626;7.530;2023-12-22T09:17:22;13.82;;;3.83;;
13202;SDS011;6666;51.626;7.530;2023-12-22T09:19:51;14.73;;;2.92;;
13202;SDS011;6666;51.626;7.530;2023-12-22T09:22:19;10.00;;;2.90;;
13202;SDS011;6666;51.626;7.530;2023-12-22T09:24:48;14.95;;;3.50;;
13202;SDS011;6666;51.626;7.530;2023-12-22T09:27:17;10.48;;;3.50;;
13202;SDS011;6666;51.626;7.530;2023-12-22T09:29:45;21.13;;;3.55;;
13202;SDS011;6666;51.626;7.530;2023-12-22T09:32:15;16.10;;;3.00;;
13202;SDS011;6666;51.626;7.530;2023-12-22T09:34:43;13.32;;;3.38;;
13202;SDS011;6666;51.626;7.530;2023-12-22T09:37:11;27.45;;;4.53;;
13202;SDS011;6666;51.626;7.530;2023-12-22T09:39:39;14.82;;;3.67;;
13202;SDS011;6666;51.626;7.530;2023-12-22T09:42:07;23.43;;;4.70;;
13202;SDS011;6666;51.626;7.530;2023-12-22T09:44:35;25.30;;;4.20;;
13202;SDS011;6666;51.626;7.530;2023-12-22T09:47:06;22.23;;;3.90;;
13202;SDS011;6666;51.626;7.530;2023-12-22T09:49:36;19.00;;;3.85;;
13202;SDS011;6666;51.626;7.530;2023-12-22T09:52:06;23.33;;;4.80;;
13202;SDS011;6666;51.626;7.530;2023-12-22T09:54:35;20.38;;;4.88;;
13202;SDS011;6666;51.626;7.530;2023-12-22T09:57:05;30.90;;;5.28;;
13202;SDS011;6666;51.626;7.530;2023-12-22T09:59:48;25.20;;;4.90;;
13202;SDS011;6666;51.626;7.530;2023-12-22T10:02:18;17.38;;;4.05;;
13202;SDS011;6666;51.626;7.530;2023-12-22T10:04:48;16.38;;;3.50;;
13202;SDS011;6666;51.626;7.530;2023-12-22T10:07:16;17.90;;;3.35;;
13202;SDS011;6666;51.626;7.530;2023-12-22T10:09:45;12.05;;;2.90;;
13202;SDS011;6666;51.626;7.530;2023-12-22T10:12:14;12.63;;;2.90;;
13202;SDS011;6666;51.626;7.530;2023-12-22T10:14:44;17.47;;;2.83;;
13202;SDS011;6666;51.626;7.530;2023-12-22T10:17:12;18.33;;;3.20;;
13202;SDS011;6666;51.626;7.530;2023-12-22T10:19:42;16.35;;;2.70;;
13202;SDS011;6666;51.626;7.530;2023-12-22T10:22:11;13.23;;;3.00;;
13202;SDS011;6666;51.626;7.530;2023-12-22T10:24:40;14.88;;;2.60;;
13202;SDS011;6666;51.626;7.530;2023-12-22T10:27:10;12.73;;;2.80;;
13202;SDS011;6666;51.626;7.530;2023-12-22T10:29:38;9.00;;;2.63;;
13202;SDS011;6666;51.626;7.530;2023-12-22T10:32:08;15.35;;;2.67;;
13202;SDS011;6666;51.626;7.530;2023-12-22T10:34:36;14.07;;;2.90;;
13202;SDS011;6666;51.626;7.530;2023-12-22T10:37:04;15.30;;;3.38;;
13202;SDS011;6666;51.626;7.530;2023-12-22T10:39:35;12.52;;;2.78;;
13202;SDS011;6666;51.626;7.530;2023-12-22T10:42:04;15.05;;;3.10;;
13202;SDS011;6666;51.626;7.530;2023-12-22T10:44:33;14.27;;;3.80;;
13202;SDS011;6666;51.626;7.530;2023-12-22T10:47:01;16.05;;;3.50;;
13202;SDS011;6666;51.626;7.530;2023-12-22T10:49:30;21.42;;;3.45;;
13202;SDS011;6666;51.626;7.530;2023-12-22T10:52:02;22.45;;;3.67;;
13202;SDS011;6666;51.626;7.530;2023-12-22T10:54:30;26.35;;;4.57;;
13202;SDS011;6666;51.626;7.530;2023-12-22T10:57:00;20.95;;;4.20;;
13202;SDS011;6666;51.626;7.530;2023-12-22T10:59:28;23.52;;;4.13;;
13202;SDS011;6666;51.626;7.530;2023-12-22T11:01:58;25.80;;;4.30;;
13202;SDS011;6666;51.626;7.530;2023-12-22T11:04:29;19.83;;;4.50;;
13202;SDS011;6666;51.626;7.530;2023-12-22T11:06:59;17.35;;;3.70;;
13202;SDS011;6666;51.626;7.530;2023-12-22T11:09:31;20.08;;;3.20;;
13202;SDS011;6666;51.626;7.530;2023-12-22T11:12:03;13.45;;;3.40;;
13202;SDS011;6666;51.626;7.530;2023-12-22T11:14:32;18.85;;;3.40;;
13202;SDS011;6666;51.626;7.530;2023-12-22T11:17:02;17.45;;;3.50;;
13202;SDS011;6666;51.626;7.530;2023-12-22T11:19:31;23.50;;;3.70;;
13202;SDS011;6666;51.626;7.530;2023-12-22T11:22:02;19.35;;;3.40;;
13202;SDS011;6666;51.626;7.530;2023-12-22T11:24:33;15.30;;;3.57;;
13202;SDS011;6666;51.626;7.530;2023-12-22T11:27:04;14.93;;;3.00;;
13202;SDS011;6666;51.626;7.530;2023-12-22T11:29:34;13.80;;;3.28;;
13202;SDS011;6666;51.626;7.530;2023-12-22T11:32:04;10.23;;;2.90;;
13202;SDS011;6666;51.626;7.530;2023-12-22T11:34:35;10.25;;;2.65;;
13202;SDS011;6666;51.626;7.530;2023-12-22T11:37:05;6.90;;;1.60;;
13202;SDS011;6666;51.626;7.530;2023-12-22T11:39:35;6.45;;;1.67;;
13202;SDS011;6666;51.626;7.530;2023-12-22T11:42:05;5.60;;;1.30;;
13202;SDS011;6666;51.626;7.530;2023-12-22T11:44:35;6.43;;;1.30;;
13202;SDS011;6666;51.626;7.530;2023-12-22T11:47:04;3.97;;;1.05;;
13202;SDS011;6666;51.626;7.530;2023-12-22T11:49:34;3.38;;;1.27;;
13202;SDS011;6666;51.626;7.530;2023-12-22T11:52:09;3.75;;;1.10;;
13202;SDS011;6666;51.626;7.530;2023-12-22T11:54:45;5.32;;;1.20;;
13202;SDS011;6666;51.626;7.530;2023-12-22T11:57:32;2.90;;;1.00;;
13202;SDS011;6666;51.626;7.530;2023-12-22T12:00:02;3.23;;;0.80;;
13202;SDS011;6666;51.626;7.530;2023-12-22T12:02:39;6.03;;;1.30;;
13202;SDS011;6666;51.626;7.530;2023-12-22T12:05:08;3.77;;;0.97;;
13202;SDS011;6666;51.626;7.530;2023-12-22T12:07:43;4.32;;;0.90;;
13202;SDS011;6666;51.626;7.530;2023-12-22T12:13:17;3.90;;;0.80;;
13202;SDS011;6666;51.626;7.530;2023-12-22T12:15:50;4.45;;;1.00;;
13202;SDS011;6666;51.626;7.530;2023-12-22T12:18:21;1.02;;;0.63;;
13202;SDS011;6666;51.626;7.530;2023-12-22T12:20:50;2.92;;;1.10;;
13202;SDS011;6666;51.626;7.530;2023-12-22T12:23:18;3.40;;;1.10;;
13202;SDS011;6666;51.626;7.530;2023-12-22T12:25:46;2.63;;;1.40;;
13202;SDS011;6666;51.626;7.530;2023-12-22T12:28:15;3.38;;;1.20;;
13202;SDS011;6666;51.626;7.530;2023-12-22T12:30:45;4.20;;;1.40;;
13202;SDS011;6666;51.626;7.530;2023-12-22T12:33:15;5.10;;;1.10;;
13202;SDS011;6666;51.626;7.530;2023-12-22T12:35:43;4.50;;;1.10;;
13202;SDS011;6666;51.626;7.530;2023-12-22T12:38:17;4.90;;;1.80;;
13202;SDS011;6666;51.626;7.530;2023-12-22T12:40:48;2.90;;;1.00;;
13202;SDS011;6666;51.626;7.530;2023-12-22T12:43:18;5.32;;;0.90;;
13202;SDS011;6666;51.626;7.530;2023-12-22T12:45:48;5.87;;;1.10;;
13202;SDS011;6666;51.626;7.530;2023-12-22T12:48:19;3.83;;;1.00;;
13202;SDS011;6666;51.626;7.530;2023-12-22T12:50:49;3.95;;;1.00;;
13202;SDS011;6666;51.626;7.530;2023-12-22T12:53:17;4.18;;;0.93;;
13202;SDS011;6666;51.626;7.530;2023-12-22T12:55:46;2.80;;;1.00;;
13202;SDS011;6666;51.626;7.530;2023-12-22T12:58:14;4.10;;;1.10;;
13202;SDS011;6666;51.626;7.530;2023-12-22T13:00:42;2.77;;;1.00;;
13202;SDS011;6666;51.626;7.530;2023-12-22T13:06:29;3.30;;;0.90;;
13202;SDS011;6666;51.626;7.530;2023-12-22T13:08:57;4.00;;;1.20;;
13202;SDS011;6666;51.626;7.530;2023-12-22T13:11:25;9.60;;;3.80;;
13202;SDS011;6666;51.626;7.530;2023-12-22T13:13:54;11.98;;;8.32;;
13202;SDS011;6666;51.626;7.530;2023-12-22T13:16:23;3.72;;;2.40;;
13202;SDS011;6666;51.626;7.530;2023-12-22T13:18:52;9.68;;;3.85;;
13202;SDS011;6666;51.626;7.530;2023-12-22T13:21:21;3.70;;;2.05;;
13202;SDS011;6666;51.626;7.530;2023-12-22T13:26:38;5.77;;;3.03;;
13202;SDS011;6666;51.626;7.530;2023-12-22T13:29:07;7.57;;;2.50;;
13202;SDS011;6666;51.626;7.530;2023-12-22T13:31:36;7.07;;;4.60;;
13202;SDS011;6666;51.626;7.530;2023-12-22T13:34:08;6.70;;;3.25;;
13202;SDS011;6666;51.626;7.530;2023-12-22T13:36:37;8.18;;;2.78;;
13202;SDS011;6666;51.626;7.530;2023-12-22T13:39:06;9.10;;;4.00;;
13202;SDS011;6666;51.626;7.530;2023-12-22T13:41:36;5.85;;;2.50;;
13202;SDS011;6666;51.626;7.530;2023-12-22T13:44:06;6.80;;;2.43;;
13202;SDS011;6666;51.626;7.530;2023-12-22T13:46:35;7.22;;;2.38;;
13202;SDS011;6666;51.626;7.530;2023-12-22T13:49:06;5.90;;;2.10;;
13202;SDS011;6666;51.626;7.530;2023-12-22T13:51:39;5.10;;;2.10;;
13202;SDS011;6666;51.626;7.530;2023-12-22T13:54:08;4.55;;;1.60;;
13202;SDS011;6666;51.626;7.530;2023-12-22T13:56:38;6.22;;;1.45;;
13202;SDS011;6666;51.626;7.530;2023-12-22T13:59:08;2.97;;;1.40;;
13202;SDS011;6666;51.626;7.530;2023-12-22T14:01:37;6.47;;;1.48;;
13202;SDS011;6666;51.626;7.530;2023-12-22T14:04:06;6.22;;;1.42;;
13202;SDS011;6666;51.626;7.530;2023-12-22T14:06:36;4.32;;;1.10;;
13202;SDS011;6666;51.626;7.530;2023-12-22T14:09:05;3.80;;;1.20;;
13202;SDS011;6666;51.626;7.530;2023-12-22T14:11:33;3.07;;;1.40;;
13202;SDS011;6666;51.626;7.530;2023-12-22T14:14:03;3.42;;;1.20;;
13202;SDS011;6666;51.626;7.530;2023-12-22T14:16:31;3.97;;;1.30;;
13202;SDS011;6666;51.626;7.530;2023-12-22T14:18:59;4.40;;;1.30;;
13202;SDS011;6666;51.626;7.530;2023-12-22T14:21:27;7.10;;;1.40;;
13202;SDS011;6666;51.626;7.530;2023-12-22T14:23:56;4.30;;;1.20;;
13202;SDS011;6666;51.626;7.530;2023-12-22T14:26:24;4.43;;;1.10;;
13202;SDS011;6666;51.626;7.530;2023-12-22T14:28:52;4.13;;;1.20;;
13202;SDS011;6666;51.626;7.530;2023-12-22T14:31:21;4.53;;;1.42;;
13202;SDS011;6666;51.626;7.530;2023-12-22T14:33:50;5.10;;;1.37;;
13202;SDS011;6666;51.626;7.530;2023-12-22T14:36:18;5.65;;;1.50;;
13202;SDS011;6666;51.626;7.530;2023-12-22T14:38:46;10.68;;;1.50;;
13202;SDS011;6666;51.626;7.530;2023-12-22T14:41:14;2.00;;;1.10;;
13202;SDS011;6666;51.626;7.530;2023-12-22T14:43:42;2.83;;;1.20;;
13202;SDS011;6666;51.626;7.530;2023-12-22T14:46:10;2.45;;;1.00;;
13202;SDS011;6666;51.626;7.530;2023-12-22T14:48:40;5.90;;;1.50;;
13202;SDS011;6666;51.626;7.530;2023-12-22T14:51:08;4.53;;;1.42;;
13202;SDS011;6666;51.626;7.530;2023-12-22T14:53:36;2.53;;;1.20;;
13202;SDS011;6666;51.626;7.530;2023-12-22T14:56:05;4.80;;;1.33;;
13202;SDS011;6666;51.626;7.530;2023-12-22T14:58:33;2.92;;;1.40;;
13202;SDS011;6666;51.626;7.530;2023-12-22T15:01:05;5.80;;;1.58;;
13202;SDS011;6666;51.626;7.530;2023-12-22T15:03:33;6.90;;;2.20;;
13202;SDS011;6666;51.626;7.530;2023-12-22T15:06:03;8.80;;;2.53;;
13202;SDS011;6666;51.626;7.530;2023-12-22T15:08:32;8.80;;;2.60;;
13202;SDS011;6666;51.626;7.530;2023-12-22T15:11:04;5.88;;;2.00;;
13202;SDS011;6666;51.626;7.530;2023-12-22T15:13:33;8.05;;;1.80;;
13202;SDS011;6666;51.626;7.530;2023-12-22T15:16:03;25.25;;;11.20;;